createdAt,value
2019-03-28T00:01:22.812Z,19.02
2019-03-28T00:03:56.430Z,19.09
2019-03-28T00:06:29.606Z,19.06
2019-03-28T00:09:03.780Z,19.04
2019-03-28T00:11:35.876Z,19.04
2019-03-28T00:14:09.293Z,19.03
2019-03-28T00:16:43.112Z,19.03
2019-03-28T00:19:16.434Z,19.01
2019-03-28T00:21:51.850Z,18.99
2019-03-28T00:24:40.493Z,18.96
2019-03-28T00:27:13.931Z,18.96
2019-03-28T00:29:47.544Z,18.94
2019-03-28T00:32:21.451Z,18.93
2019-03-28T00:34:55.107Z,18.93
2019-03-28T00:37:28.656Z,18.93
2019-03-28T00:40:02.125Z,18.95
2019-03-28T00:42:35.456Z,18.95
2019-03-28T00:45:09.890Z,18.92
2019-03-28T00:47:43.376Z,18.95
2019-03-28T00:50:16.564Z,18.94
2019-03-28T00:53:19.087Z,18.97
2019-03-28T00:55:52.560Z,18.97
2019-03-28T00:58:25.861Z,18.99
2019-03-28T01:00:59.430Z,18.96
2019-03-28T01:03:32.884Z,18.92
2019-03-28T01:06:07.384Z,18.91
2019-03-28T01:08:41.036Z,18.93
2019-03-28T01:11:14.468Z,18.96
2019-03-28T01:13:48.038Z,18.97
2019-03-28T01:16:21.465Z,18.98
2019-03-28T01:18:55.035Z,18.98
2019-03-28T01:21:28.591Z,18.97
2019-03-28T01:24:02.122Z,18.89
2019-03-28T01:26:35.561Z,18.89
2019-03-28T01:29:09.596Z,18.89
2019-03-28T01:31:43.329Z,18.91
2019-03-28T01:34:16.609Z,18.91
2019-03-28T01:36:49.274Z,18.92
2019-03-28T01:39:22.558Z,18.90
2019-03-28T01:41:55.845Z,18.91
2019-03-28T01:44:29.346Z,18.91
2019-03-28T01:47:02.445Z,18.91
2019-03-28T01:49:35.493Z,18.90
2019-03-28T01:52:09.373Z,18.84
2019-03-28T01:54:42.744Z,18.87
2019-03-28T01:57:14.754Z,18.87
2019-03-28T01:59:48.315Z,18.85
2019-03-28T02:02:21.457Z,18.87
2019-03-28T02:04:54.881Z,18.82
2019-03-28T02:07:28.432Z,18.81
2019-03-28T02:10:01.894Z,18.84
2019-03-28T02:12:35.400Z,18.80
2019-03-28T02:15:09.874Z,18.76
2019-03-28T02:17:43.334Z,18.76
2019-03-28T02:20:17.381Z,18.71
2019-03-28T02:22:51.308Z,18.68
2019-03-28T02:25:24.699Z,18.70
2019-03-28T02:27:56.735Z,18.73
2019-03-28T02:30:37.334Z,18.82
2019-03-28T02:33:10.880Z,18.76
2019-03-28T02:35:44.467Z,18.76
2019-03-28T02:38:18.052Z,18.78
2019-03-28T02:40:52.020Z,18.78
2019-03-28T02:43:25.405Z,18.77
2019-03-28T02:45:58.929Z,18.77
2019-03-28T02:48:32.324Z,18.78
2019-03-28T02:51:06.047Z,18.78
2019-03-28T02:53:39.616Z,18.74
2019-03-28T02:56:13.489Z,18.68
2019-03-28T02:58:47.335Z,18.69
2019-03-28T03:01:20.923Z,18.70
2019-03-28T03:03:54.298Z,18.69
2019-03-28T03:06:28.331Z,18.73
2019-03-28T03:09:01.512Z,18.72
2019-03-28T03:11:35.611Z,18.72
2019-03-28T03:14:10.007Z,18.76
2019-03-28T03:16:43.654Z,18.74
2019-03-28T03:19:17.072Z,18.76
2019-03-28T03:21:50.444Z,18.76
2019-03-28T03:24:24.331Z,18.70
2019-03-28T03:26:57.855Z,18.71
2019-03-28T03:29:31.342Z,18.67
2019-03-28T03:32:04.617Z,18.69
2019-03-28T03:34:38.116Z,18.65
2019-03-28T03:37:11.426Z,18.65
2019-03-28T03:39:45.509Z,18.67
2019-03-28T03:42:18.896Z,18.67
2019-03-28T03:44:53.043Z,18.61
2019-03-28T03:47:26.727Z,18.68
2019-03-28T03:49:59.287Z,18.67
2019-03-28T03:52:33.829Z,18.70
2019-03-28T03:55:08.462Z,18.69
2019-03-28T03:57:41.624Z,18.71
2019-03-28T04:00:16.651Z,18.65
2019-03-28T04:02:48.717Z,18.68
2019-03-28T04:05:22.335Z,18.67
2019-03-28T04:07:55.895Z,18.68
2019-03-28T04:10:29.395Z,18.66
2019-03-28T04:13:03.005Z,18.65
2019-03-28T04:15:36.331Z,18.62
2019-03-28T04:18:09.454Z,18.66
2019-03-28T04:20:43.069Z,18.67
2019-03-28T04:23:17.319Z,18.68
2019-03-28T04:25:50.914Z,18.63
2019-03-28T04:28:31.799Z,18.58
2019-03-28T04:30:59.971Z,18.58
2019-03-28T04:33:33.451Z,18.61
2019-03-28T04:36:06.660Z,18.59
2019-03-28T04:38:40.352Z,18.56
2019-03-28T04:41:14.338Z,18.56
2019-03-28T04:43:47.665Z,18.51
2019-03-28T04:46:21.467Z,18.43
2019-03-28T04:48:54.875Z,18.43
2019-03-28T04:51:28.961Z,18.54
2019-03-28T04:54:03.534Z,18.52
2019-03-28T04:56:37.118Z,18.49
2019-03-28T04:59:11.445Z,18.49
2019-03-28T05:02:01.025Z,18.51
2019-03-28T05:04:21.800Z,18.49
2019-03-28T05:06:55.401Z,18.48
2019-03-28T05:09:28.897Z,18.57
2019-03-28T05:12:02.744Z,18.51
2019-03-28T05:14:35.956Z,18.49
2019-03-28T05:17:09.475Z,18.46
2019-03-28T05:19:43.293Z,18.44
2019-03-28T05:22:17.378Z,18.51
2019-03-28T05:24:50.645Z,18.56
2019-03-28T05:27:24.334Z,18.49
2019-03-28T05:29:57.486Z,18.49
2019-03-28T05:32:31.335Z,18.50
2019-03-28T05:35:05.379Z,18.57
2019-03-28T05:37:38.825Z,18.61
2019-03-28T05:40:12.630Z,18.64
2019-03-28T05:42:46.469Z,18.52
2019-03-28T05:45:20.026Z,18.52
2019-03-28T05:47:53.800Z,18.63
2019-03-28T05:50:27.889Z,18.63
2019-03-28T05:53:01.602Z,18.63
2019-03-28T05:55:35.319Z,18.65
2019-03-28T05:58:09.711Z,18.65
2019-03-28T06:00:43.863Z,18.63
2019-03-28T06:03:17.507Z,18.64
2019-03-28T06:05:50.927Z,18.56
2019-03-28T06:08:24.469Z,18.56
2019-03-28T06:10:58.049Z,18.65
2019-03-28T06:13:31.918Z,18.64
2019-03-28T06:16:05.411Z,18.59
2019-03-28T06:18:39.006Z,18.60
2019-03-28T06:21:12.459Z,18.57
2019-03-28T06:23:45.824Z,18.57
2019-03-28T06:26:19.461Z,18.57
2019-03-28T06:28:53.313Z,18.51
2019-03-28T06:31:26.406Z,18.55
2019-03-28T06:34:00.539Z,18.52
2019-03-28T06:36:34.323Z,18.53
2019-03-28T06:39:08.903Z,18.55
2019-03-28T06:41:44.332Z,18.51
2019-03-28T06:44:18.091Z,18.52
2019-03-28T06:46:51.796Z,18.54
2019-03-28T06:49:25.343Z,18.55
2019-03-28T06:51:58.839Z,18.58
2019-03-28T06:54:32.587Z,18.58
2019-03-28T06:57:06.009Z,18.65
2019-03-28T06:59:40.318Z,18.65
2019-03-28T07:02:13.866Z,18.70
2019-03-28T07:04:47.406Z,18.68
2019-03-28T07:07:20.920Z,18.68
2019-03-28T07:09:54.450Z,18.67
2019-03-28T07:12:27.854Z,18.68
2019-03-28T07:15:01.413Z,18.72
2019-03-28T07:17:34.873Z,18.76
2019-03-28T07:20:09.269Z,18.79
2019-03-28T07:22:45.760Z,18.78
2019-03-28T07:25:17.907Z,18.79
2019-03-28T07:27:51.418Z,18.79
2019-03-28T07:30:25.333Z,18.73
2019-03-28T07:32:59.357Z,18.77
2019-03-28T07:35:32.893Z,18.78
2019-03-28T07:38:06.326Z,18.77
2019-03-28T07:40:39.502Z,18.81
2019-03-28T07:43:14.481Z,18.77
2019-03-28T07:45:47.548Z,18.78
2019-03-28T07:48:20.991Z,18.82
2019-03-28T07:50:54.881Z,18.85
2019-03-28T07:53:28.402Z,18.92
2019-03-28T07:56:01.891Z,18.89
2019-03-28T07:58:35.881Z,18.85
2019-03-28T08:01:09.600Z,18.88
2019-03-28T08:03:43.323Z,18.86
2019-03-28T08:06:17.321Z,18.86
2019-03-28T08:08:51.874Z,18.84
2019-03-28T08:11:25.481Z,18.84
2019-03-28T08:13:58.832Z,18.84
2019-03-28T08:16:32.469Z,18.84
2019-03-28T08:19:08.011Z,18.83
2019-03-28T08:21:41.843Z,18.91
2019-03-28T08:24:15.435Z,18.91
2019-03-28T08:26:49.317Z,18.93
2019-03-28T08:29:22.602Z,18.94
2019-03-28T08:31:58.284Z,18.88
2019-03-28T08:34:31.859Z,18.88
2019-03-28T08:37:05.526Z,18.95
2019-03-28T08:39:38.867Z,18.93
2019-03-28T08:42:12.657Z,18.91
2019-03-28T08:44:46.321Z,18.83
2019-03-28T08:47:19.812Z,18.83
2019-03-28T08:49:53.352Z,18.97
2019-03-28T08:52:26.976Z,18.97
2019-03-28T08:55:00.524Z,18.93
2019-03-28T08:57:33.856Z,18.98
2019-03-28T09:00:09.373Z,18.98
2019-03-28T09:02:43.273Z,18.97
2019-03-28T09:05:16.849Z,18.96
2019-03-28T09:07:50.556Z,19.02
2019-03-28T09:10:23.869Z,19.02
2019-03-28T09:12:57.605Z,19.04
2019-03-28T09:15:43.137Z,19.04
2019-03-28T09:18:06.519Z,19.04
2019-03-28T09:20:40.205Z,19.06
2019-03-28T09:23:13.805Z,19.05
2019-03-28T09:25:47.327Z,19.05
2019-03-28T09:28:20.902Z,19.07
2019-03-28T09:30:54.444Z,19.07
2019-03-28T09:33:27.800Z,19.00
2019-03-28T09:36:01.297Z,19.04
2019-03-28T09:38:35.329Z,19.07
2019-03-28T09:41:10.387Z,19.09
2019-03-28T09:43:54.520Z,19.11
2019-03-28T09:46:18.842Z,19.08
2019-03-28T09:48:52.416Z,19.08
2019-03-28T09:51:25.882Z,19.07
2019-03-28T09:53:59.335Z,19.10
2019-03-28T09:56:32.862Z,19.09
2019-03-28T09:59:06.398Z,19.11
2019-03-28T10:01:39.453Z,19.09
2019-03-28T10:04:12.883Z,19.06
2019-03-28T10:06:46.534Z,19.07
2019-03-28T10:09:20.359Z,19.10
2019-03-28T10:11:54.335Z,19.06
2019-03-28T10:14:27.488Z,19.07
2019-03-28T10:17:01.414Z,19.08
2019-03-28T10:19:35.014Z,19.20
2019-03-28T10:22:08.910Z,19.20
2019-03-28T10:24:42.615Z,19.14
2019-03-28T10:27:19.058Z,19.13
2019-03-28T10:29:49.753Z,19.13
2019-03-28T10:32:45.333Z,19.24
2019-03-28T10:35:30.286Z,19.30
2019-03-28T10:38:04.331Z,19.32
2019-03-28T10:40:37.576Z,19.29
2019-03-28T10:43:13.025Z,19.24
2019-03-28T10:45:46.332Z,19.24
2019-03-28T10:48:19.569Z,19.22
2019-03-28T10:50:54.916Z,19.21
2019-03-28T10:53:30.130Z,19.18
2019-03-28T10:56:03.790Z,19.21
2019-03-28T10:58:35.600Z,19.22
2019-03-28T11:01:08.880Z,19.11
2019-03-28T11:03:41.873Z,19.11
2019-03-28T11:06:15.076Z,19.17
2019-03-28T11:08:47.901Z,19.20
2019-03-28T11:11:20.868Z,19.24
2019-03-28T11:13:54.413Z,19.26
2019-03-28T11:16:26.972Z,19.31
2019-03-28T11:19:00.060Z,19.28
2019-03-28T11:21:34.399Z,19.28
2019-03-28T11:24:07.025Z,19.30
2019-03-28T11:26:40.357Z,19.33
2019-03-28T11:29:13.313Z,19.37
2019-03-28T11:31:50.570Z,19.32
2019-03-28T11:34:22.072Z,19.37
2019-03-28T11:36:55.490Z,19.32
2019-03-28T11:39:29.267Z,19.31
2019-03-28T11:42:02.812Z,19.35
2019-03-28T11:44:36.314Z,19.37
2019-03-28T11:47:09.323Z,19.33
2019-03-28T11:49:42.305Z,19.31
2019-03-28T11:52:15.313Z,19.31
2019-03-28T11:54:48.310Z,19.31
2019-03-28T11:57:21.310Z,19.33
2019-03-28T11:59:54.312Z,19.30
2019-03-28T12:02:27.778Z,19.31
2019-03-28T12:05:01.377Z,19.31
2019-03-28T12:07:34.354Z,19.33
2019-03-28T12:10:10.530Z,19.38
2019-03-28T12:12:43.497Z,19.33
2019-03-28T12:15:17.303Z,19.30
2019-03-28T12:17:50.338Z,19.32
2019-03-28T12:20:23.313Z,19.33
2019-03-28T12:22:56.305Z,19.29
2019-03-28T12:25:29.324Z,19.26
2019-03-28T12:28:02.499Z,19.27
2019-03-28T12:30:35.305Z,19.30
2019-03-28T12:33:08.374Z,19.30
2019-03-28T12:35:41.324Z,19.28
2019-03-28T12:38:17.441Z,19.26
2019-03-28T12:40:50.316Z,19.24
2019-03-28T12:43:23.319Z,19.27
2019-03-28T12:45:56.318Z,19.25
2019-03-28T12:48:29.311Z,19.33
2019-03-28T12:51:02.383Z,19.32
2019-03-28T12:53:35.310Z,19.26
2019-03-28T12:56:08.418Z,19.26
2019-03-28T12:58:41.406Z,19.28
2019-03-28T13:01:14.798Z,19.28
2019-03-28T13:03:48.008Z,19.27
2019-03-28T13:06:21.803Z,19.28
2019-03-28T13:08:55.061Z,19.22
2019-03-28T13:11:28.594Z,19.23
2019-03-28T13:14:01.125Z,19.23
2019-03-28T13:16:34.850Z,19.23
2019-03-28T13:19:08.070Z,19.24
2019-03-28T13:21:41.446Z,19.31
2019-03-28T13:24:14.327Z,19.30
2019-03-28T13:26:47.318Z,19.29
2019-03-28T13:29:20.312Z,19.29
2019-03-28T13:31:53.317Z,19.30
2019-03-28T13:34:26.868Z,19.28
2019-03-28T13:37:00.316Z,19.27
2019-03-28T13:39:33.315Z,19.31
2019-03-28T13:42:06.322Z,19.28
2019-03-28T13:44:39.401Z,19.23
2019-03-28T13:47:12.382Z,19.24
2019-03-28T13:49:45.318Z,19.28
2019-03-28T13:52:18.313Z,19.23
2019-03-28T13:54:53.033Z,19.28
2019-03-28T13:57:26.285Z,19.24
2019-03-28T13:59:59.363Z,19.22
2019-03-28T14:02:32.370Z,19.19
2019-03-28T14:05:06.311Z,19.17
2019-03-28T14:07:39.316Z,19.16
2019-03-28T14:10:13.315Z,19.11
2019-03-28T14:12:46.299Z,19.15
2019-03-28T14:15:19.704Z,19.13
2019-03-28T14:17:51.675Z,19.14
2019-03-28T14:20:23.533Z,19.15
2019-03-28T14:22:56.395Z,19.17
2019-03-28T14:25:31.494Z,19.17
2019-03-28T14:28:10.344Z,19.17
2019-03-28T14:30:44.717Z,19.18
2019-03-28T14:33:27.843Z,19.14
2019-03-28T14:36:01.322Z,19.09
2019-03-28T14:38:37.308Z,19.14
2019-03-28T14:41:09.636Z,19.13
2019-03-28T14:43:42.829Z,19.14
2019-03-28T14:46:16.070Z,19.14
2019-03-28T14:49:10.708Z,19.14
2019-03-28T14:51:44.323Z,19.12
2019-03-28T14:54:17.315Z,19.14
2019-03-28T14:56:51.311Z,19.15
2019-03-28T14:59:32.312Z,19.13
2019-03-28T15:01:59.302Z,19.11
2019-03-28T15:04:32.658Z,19.14
2019-03-28T15:07:08.810Z,19.31
2019-03-28T15:09:41.897Z,19.31
2019-03-28T15:12:15.314Z,19.49
2019-03-28T15:14:48.308Z,19.77
2019-03-28T15:17:21.366Z,19.98
2019-03-28T15:19:54.310Z,20.08
2019-03-28T15:22:27.306Z,20.10
2019-03-28T15:25:00.306Z,20.16
2019-03-28T15:27:33.306Z,20.17
2019-03-28T15:30:06.785Z,20.15
2019-03-28T15:32:39.815Z,20.14
2019-03-28T15:35:13.028Z,20.05
2019-03-28T15:37:47.343Z,19.95
2019-03-28T15:40:20.099Z,19.94
2019-03-28T15:42:53.300Z,19.93
2019-03-28T15:45:26.345Z,19.95
2019-03-28T15:47:59.688Z,19.92
2019-03-28T15:50:31.670Z,20.02
2019-03-28T15:53:03.635Z,20.08
2019-03-28T15:55:36.257Z,20.17
2019-03-28T15:58:23.067Z,20.22
2019-03-28T16:00:52.409Z,20.25
2019-03-28T16:03:26.634Z,20.27
2019-03-28T16:05:59.879Z,20.16
2019-03-28T16:08:33.300Z,20.16
2019-03-28T16:11:06.815Z,20.30
2019-03-28T16:13:40.289Z,20.21
2019-03-28T16:16:13.304Z,20.33
2019-03-28T16:18:46.346Z,20.36
2019-03-28T16:21:19.590Z,20.40
2019-03-28T16:23:53.054Z,20.38
2019-03-28T16:26:26.298Z,20.35
2019-03-28T16:29:00.289Z,20.35
2019-03-28T16:31:33.350Z,20.33
2019-03-28T16:34:07.541Z,20.33
2019-03-28T16:36:41.035Z,20.30
2019-03-28T16:39:14.298Z,20.13
2019-03-28T16:41:47.307Z,20.02
2019-03-28T16:44:20.503Z,19.94
2019-03-28T16:46:53.407Z,19.95
2019-03-28T16:49:26.320Z,19.92
2019-03-28T16:51:59.302Z,19.86
2019-03-28T16:54:32.363Z,19.78
2019-03-28T16:57:05.367Z,19.69
2019-03-28T16:59:39.322Z,19.83
2019-03-28T17:02:12.056Z,19.98
2019-03-28T17:04:45.268Z,20.07
2019-03-28T17:07:18.804Z,20.20
2019-03-28T17:09:51.818Z,20.34
2019-03-28T17:12:24.849Z,20.46
2019-03-28T17:14:57.834Z,20.55
2019-03-28T17:17:30.818Z,20.56
2019-03-28T17:22:44.309Z,20.70
2019-03-28T17:25:17.036Z,20.64
2019-03-28T17:27:50.681Z,20.62
2019-03-28T17:30:22.631Z,20.48
2019-03-28T17:32:55.819Z,20.42
2019-03-28T17:35:29.824Z,20.42
2019-03-28T17:38:03.000Z,20.43
2019-03-28T17:40:36.962Z,20.37
2019-03-28T17:43:10.012Z,20.31
2019-03-28T17:45:43.271Z,20.26
2019-03-28T17:48:16.642Z,20.28
2019-03-28T17:50:49.935Z,20.35
2019-03-28T17:53:24.116Z,20.35
2019-03-28T17:55:57.779Z,20.30
2019-03-28T17:58:29.412Z,20.30
2019-03-28T18:01:03.034Z,20.19
2019-03-28T18:03:36.250Z,20.05
2019-03-28T18:06:09.047Z,19.96
2019-03-28T18:08:42.749Z,19.87
2019-03-28T18:11:16.301Z,19.81
2019-03-28T18:13:49.795Z,19.80
2019-03-28T18:16:23.302Z,20.01
2019-03-28T18:18:56.269Z,20.14
2019-03-28T18:21:29.295Z,20.18
2019-03-28T18:24:02.317Z,20.24
2019-03-28T18:26:35.365Z,20.30
2019-03-28T18:29:08.297Z,20.16
2019-03-28T18:31:50.463Z,20.17
2019-03-28T18:34:15.981Z,20.02
2019-03-28T18:36:48.849Z,20.17
2019-03-28T18:39:22.054Z,20.18
2019-03-28T18:41:56.600Z,20.15
2019-03-28T18:44:28.605Z,20.15
2019-03-28T18:47:01.862Z,20.11
2019-03-28T18:49:35.093Z,20.11
2019-03-28T18:52:08.062Z,20.17
2019-03-28T18:54:41.301Z,20.14
2019-03-28T18:57:14.798Z,20.06
2019-03-28T18:59:47.757Z,20.00
2019-03-28T19:02:21.062Z,20.05
2019-03-28T19:04:54.297Z,20.00
2019-03-28T19:07:27.075Z,19.97
2019-03-28T19:09:59.976Z,19.91
2019-03-28T19:12:32.898Z,19.78
2019-03-28T19:15:06.326Z,19.65
2019-03-28T19:17:39.466Z,19.64
2019-03-28T19:20:12.424Z,19.57
2019-03-28T19:22:45.520Z,19.51
2019-03-28T19:25:18.783Z,19.48
2019-03-28T19:27:51.982Z,19.48
2019-03-28T19:30:35.326Z,19.57
2019-03-28T19:33:08.814Z,19.71
2019-03-28T19:35:42.066Z,19.82
2019-03-28T19:38:16.693Z,19.93
2019-03-28T19:43:20.502Z,20.00
2019-03-28T19:45:48.270Z,19.88
2019-03-28T19:48:21.061Z,19.78
2019-03-28T19:50:54.069Z,19.70
2019-03-28T19:53:27.304Z,19.65
2019-03-28T19:56:00.313Z,19.57
2019-03-28T19:58:35.258Z,19.51
2019-03-28T20:01:08.484Z,19.49
2019-03-28T20:03:42.916Z,19.46
2019-03-28T20:06:22.164Z,19.46
2019-03-28T20:08:49.646Z,19.36
2019-03-28T20:11:22.933Z,19.26
2019-03-28T20:13:56.384Z,19.26
2019-03-28T20:16:29.075Z,19.37
2019-03-28T20:19:02.518Z,19.45
2019-03-28T20:21:35.364Z,19.82
2019-03-28T20:24:08.313Z,19.82
2019-03-28T20:26:41.748Z,19.86
2019-03-28T20:29:13.432Z,19.61
2019-03-28T20:31:46.065Z,19.62
2019-03-28T20:34:18.998Z,19.72
2019-03-28T20:36:53.076Z,19.72
2019-03-28T20:39:26.429Z,19.72
2019-03-28T20:41:59.799Z,19.71
2019-03-28T20:44:32.788Z,19.71
2019-03-28T20:47:04.735Z,19.73
2019-03-28T20:49:36.643Z,19.71
2019-03-28T20:52:09.747Z,19.55
2019-03-28T20:54:42.813Z,19.55
2019-03-28T20:57:15.786Z,19.51
2019-03-28T20:59:48.759Z,19.59
2019-03-28T21:02:20.620Z,19.53
2019-03-28T21:04:53.409Z,19.56
2019-03-28T21:07:25.994Z,19.56
2019-03-28T21:09:59.319Z,19.57
2019-03-28T21:12:34.759Z,19.46
2019-03-28T21:15:08.660Z,19.42
2019-03-28T21:17:43.730Z,19.42
2019-03-28T21:20:17.660Z,19.49
2019-03-28T21:22:51.687Z,19.49
2019-03-28T21:25:24.596Z,19.48
2019-03-28T21:27:59.715Z,19.51
2019-03-28T21:30:46.303Z,19.40
2019-03-28T21:33:09.706Z,19.40
2019-03-28T21:35:42.664Z,19.49
2019-03-28T21:38:17.103Z,19.49
2019-03-28T21:40:53.185Z,19.46
2019-03-28T21:43:27.537Z,19.48
2019-03-28T21:46:02.657Z,19.48
2019-03-28T21:48:37.686Z,19.43
2019-03-28T21:51:13.700Z,19.44
2019-03-28T21:53:46.664Z,19.40
2019-03-28T21:56:24.017Z,19.41
2019-03-28T21:58:59.702Z,19.41
2019-03-28T22:01:33.617Z,19.36
2019-03-28T22:04:09.689Z,19.43
2019-03-28T22:06:43.619Z,19.40
2019-03-28T22:09:18.682Z,19.35
2019-03-28T22:11:53.666Z,19.39
2019-03-28T22:14:26.666Z,19.35
2019-03-28T22:17:01.712Z,19.44
2019-03-28T22:19:35.620Z,19.35
2019-03-28T22:22:10.735Z,19.39
2019-03-28T22:24:44.597Z,19.29
2019-03-28T22:27:20.694Z,19.33
2019-03-28T22:29:55.365Z,19.40
2019-03-28T22:32:30.811Z,19.40
2019-03-28T22:35:06.749Z,19.35
2019-03-28T22:37:39.701Z,19.35
2019-03-28T22:40:16.367Z,19.35
2019-03-28T22:42:52.724Z,19.36
2019-03-28T22:45:27.908Z,19.35
2019-03-28T22:48:10.811Z,19.34
2019-03-28T22:50:41.746Z,19.31
2019-03-28T22:53:15.686Z,19.28
2019-03-28T22:55:50.695Z,19.23
2019-03-28T22:58:25.665Z,19.21
2019-03-28T23:01:01.748Z,19.23
2019-03-28T23:03:35.698Z,19.22
2019-03-28T23:06:12.702Z,19.19
2019-03-28T23:08:47.683Z,19.11
2019-03-28T23:11:23.710Z,19.22
2019-03-28T23:14:00.732Z,19.16
2019-03-28T23:16:34.682Z,19.22
2019-03-28T23:19:11.771Z,19.20
2019-03-28T23:21:45.916Z,19.20
2019-03-28T23:24:21.742Z,19.13
2019-03-28T23:26:57.738Z,19.19
2019-03-28T23:29:32.867Z,19.23
2019-03-28T23:32:08.705Z,19.21
2019-03-28T23:34:42.692Z,19.26
2019-03-28T23:37:24.699Z,19.22
2019-03-28T23:39:56.743Z,19.22
2019-03-28T23:42:32.770Z,19.21
2019-03-28T23:45:07.738Z,19.19
2019-03-28T23:47:43.839Z,19.15
2019-03-28T23:50:18.722Z,19.15
2019-03-28T23:52:52.697Z,19.21
2019-03-28T23:55:28.749Z,19.13
2019-03-28T23:58:03.677Z,19.10
